.
WxDataArchive / Data Records for 2014-01-03
2014-01-02 January 2014 2014-01-04

Data Records for Friday, 03 January 2014

Time	Temp	Chill	HIndex	Humid	Dewpt	 Wind 	HiWind	WindDir	Rain 	Barom 
-----	----	-----	------	-----	-----	------	------	-------	-----	----- 
00:00	3.9	3.9	3.9	69	-4.0	0	0	---	0.00	30.357 
00:05	3.7	3.7	3.7	69	-4.2	0	0	---	0.00	30.357 
00:10	3.5	3.5	3.5	69	-4.4	0	1	315	0.00	30.357 
00:15	3.4	3.4	3.4	69	-4.4	0	0	---	0.00	30.369 
00:20	3.2	3.2	3.2	69	-4.6	0	0	---	0.00	30.369 
00:25	3.0	3.0	3.0	69	-4.8	0	0	---	0.00	30.369 
00:30	2.8	2.8	2.8	69	-5.0	0	0	---	0.00	30.371 
00:35	2.6	2.6	2.6	69	-5.2	0	0	---	0.00	30.371 
00:40	2.4	2.4	2.4	70	-5.1	0	0	---	0.00	30.371 
00:45	2.4	2.4	2.4	70	-5.1	0	0	---	0.00	30.375 
00:50	2.2	2.2	2.2	70	-5.3	0	1	315	0.00	30.375 
00:55	2.2	2.2	2.2	70	-5.3	0	0	---	0.00	30.375 
01:00	2.0	2.0	2.0	70	-5.5	0	0	---	0.00	30.375 
01:05	1.8	1.8	1.8	70	-5.7	0	0	---	0.00	30.375 
01:10	1.5	1.5	1.5	70	-6.0	0	0	---	0.00	30.375 
01:15	1.3	1.3	1.3	71	-5.9	0	0	---	0.00	30.382 
01:20	1.1	1.1	1.1	71	-6.1	0	0	---	0.00	30.382 
01:25	0.9	0.9	0.9	71	-6.3	0	0	---	0.00	30.382 
01:30	0.9	0.9	0.9	71	-6.3	0	0	---	0.00	30.377 
01:35	0.7	0.7	0.7	71	-6.5	0	0	---	0.00	30.377 
01:40	0.3	0.3	0.3	72	-6.6	0	0	---	0.00	30.377 
01:45	0.1	0.1	0.1	72	-6.7	0	0	---	0.00	30.388 
01:50	-0.2	-0.2	-0.2	72	-7.0	0	0	---	0.00	30.388 
01:55	-0.4	-0.4	-0.4	73	-6.9	0	0	---	0.00	30.388 
02:00	-0.2	-0.2	-0.2	73	-6.8	0	0	---	0.00	30.392 
02:05	-0.2	-0.2	-0.2	73	-6.8	0	0	---	0.00	30.392 
02:10	-0.2	-0.2	-0.2	73	-6.8	0	0	---	0.00	30.392 
02:15	-0.2	-0.2	-0.2	73	-6.8	0	0	---	0.00	30.401 
02:20	-0.4	-0.4	-0.4	73	-6.9	0	0	---	0.00	30.401 
02:25	-0.6	-0.6	-0.6	73	-7.1	0	0	---	0.00	30.401 
02:30	-0.6	-0.6	-0.6	73	-7.1	0	0	---	0.00	30.409 
02:35	-1.0	-1.0	-1.0	73	-7.5	0	0	---	0.00	30.409 
02:40	-1.2	-1.2	-1.2	74	-7.4	0	0	---	0.00	30.409 
02:45	-1.0	-1.0	-1.0	74	-7.3	0	0	---	0.00	30.422 
02:50	-0.8	-0.8	-0.8	75	-6.8	0	0	---	0.00	30.422 
02:55	-0.6	-0.6	-0.6	74	-6.9	0	0	---	0.00	30.422 
03:00	-0.6	-0.6	-0.6	74	-6.9	0	0	---	0.00	30.433 
03:05	-0.8	-0.8	-0.8	74	-7.1	0	0	---	0.00	30.433 
03:10	-1.0	-1.0	-1.0	74	-7.3	0	0	---	0.00	30.433 
03:15	-1.2	-1.2	-1.2	74	-7.4	0	0	---	0.00	30.436 
03:20	-1.4	-1.4	-1.4	74	-7.6	0	0	---	0.00	30.436 
03:25	-1.8	-1.8	-1.8	74	-8.0	0	0	---	0.00	30.436 
03:30	-1.8	-1.8	-1.8	74	-8.0	0	0	---	0.00	30.437 
03:35	-2.0	-2.0	-2.0	74	-8.2	0	0	---	0.00	30.437 
03:40	-2.0	-2.0	-2.0	75	-7.9	0	0	---	0.00	30.437 
03:45	-2.0	-2.0	-2.0	75	-7.9	0	0	---	0.00	30.437 
03:50	-1.8	-1.8	-1.8	76	-7.5	0	0	---	0.00	30.437 
03:55	-1.8	-1.8	-1.8	76	-7.5	0	0	---	0.00	30.437 
04:00	-1.6	-1.6	-1.6	76	-7.3	0	0	---	0.00	30.437 
04:05	-1.6	-1.6	-1.6	76	-7.3	0	1	315	0.00	30.437 
04:10	-1.8	-1.8	-1.8	75	-7.8	0	0	---	0.00	30.437 
04:15	-1.8	-1.8	-1.8	76	-7.5	0	0	---	0.00	30.444 
04:20	-1.8	-1.8	-1.8	76	-7.5	0	1	315	0.00	30.444 
04:25	-2.0	-2.0	-2.0	76	-7.7	0	0	---	0.00	30.444 
04:30	-2.0	-2.0	-2.0	76	-7.7	0	0	---	0.00	30.443 
04:35	-2.0	-2.0	-2.0	76	-7.7	0	0	---	0.00	30.443 
04:40	-2.0	-2.0	-2.0	76	-7.7	0	1	315	0.00	30.443 
04:45	-2.0	-2.0	-2.0	76	-7.7	0	0	---	0.00	30.446 
04:50	-2.0	-2.0	-2.0	76	-7.7	0	1	315	0.00	30.446 
04:55	-1.8	-1.8	-1.8	76	-7.5	0	1	315	0.00	30.446 
05:00	-1.8	-1.8	-1.8	76	-7.5	0	1	315	0.00	30.456 
05:05	-1.8	-1.8	-1.8	76	-7.5	0	1	315	0.00	30.456 
05:10	-1.8	-1.8	-1.8	76	-7.5	0	0	---	0.00	30.456 
05:15	-1.8	-1.8	-1.8	76	-7.5	0	0	---	0.00	30.454 
05:20	-2.2	-2.2	-2.2	76	-7.9	0	1	315	0.00	30.454 
05:25	-2.2	-2.2	-2.2	76	-7.9	0	0	---	0.00	30.454 
05:30	-2.4	-2.4	-2.4	76	-8.1	0	0	---	0.00	30.454 
05:35	-2.4	-2.4	-2.4	76	-8.1	0	0	---	0.00	30.454 
05:40	-2.4	-2.4	-2.4	76	-8.1	0	0	---	0.00	30.454 
05:45	-2.4	-2.4	-2.4	76	-8.1	0	0	---	0.00	30.459 
05:50	-2.2	-2.2	-2.2	77	-7.6	0	1	315	0.00	30.459 
05:55	-2.4	-2.4	-2.4	76	-8.1	0	0	---	0.00	30.459 
06:00	-2.6	-2.6	-2.6	76	-8.3	0	0	---	0.00	30.466 
06:05	-2.6	-2.6	-2.6	77	-8.0	0	0	---	0.00	30.466 
06:10	-2.4	-2.4	-2.4	77	-7.8	0	0	---	0.00	30.466 
06:15	-2.4	-2.4	-2.4	77	-7.8	0	0	---	0.00	30.467 
06:20	-2.4	-2.4	-2.4	77	-7.8	0	0	---	0.00	30.467 
06:25	-2.4	-2.4	-2.4	77	-7.8	0	0	---	0.00	30.467 
06:30	-2.4	-2.4	-2.4	77	-7.8	0	0	---	0.00	30.473 
06:35	-2.4	-2.4	-2.4	77	-7.8	0	0	---	0.00	30.473 
06:40	-2.6	-2.6	-2.6	77	-8.0	0	0	---	0.00	30.473 
06:45	-2.6	-2.6	-2.6	76	-8.3	0	0	---	0.00	30.476 
06:50	-2.6	-2.6	-2.6	76	-8.3	0	0	---	0.00	30.476 
06:55	-2.8	-2.8	-2.8	76	-8.5	0	0	---	0.00	30.476 
07:00	-2.8	-2.8	-2.8	77	-8.2	0	0	---	0.00	30.480 
07:05	-2.8	-2.8	-2.8	76	-8.5	0	0	---	0.00	30.480 
07:10	-2.8	-2.8	-2.8	77	-8.2	0	1	315	0.00	30.480 
07:15	-2.6	-2.6	-2.6	77	-8.0	0	0	---	0.00	30.486 
07:20	-2.8	-2.8	-2.8	76	-8.5	0	0	---	0.00	30.486 
07:25	-3.1	-3.1	-3.1	76	-8.7	0	0	---	0.00	30.486 
07:30	-3.3	-3.3	-3.3	76	-8.9	0	0	---	0.00	30.485 
07:35	-3.5	-3.5	-3.5	76	-9.1	0	0	---	0.00	30.485 
07:40	-3.5	-3.5	-3.5	76	-9.1	0	0	---	0.00	30.485 
07:45	-3.7	-3.7	-3.7	76	-9.3	0	0	---	0.00	30.492 
07:50	-3.7	-3.7	-3.7	76	-9.3	0	0	---	0.00	30.492 
07:55	-3.9	-3.9	-3.9	76	-9.5	0	0	---	0.00	30.492 
08:00	-4.1	-4.1	-4.1	76	-9.7	0	0	---	0.00	30.494 
08:05	-4.3	-4.3	-4.3	76	-9.9	0	0	---	0.00	30.494 
08:10	-4.3	-4.3	-4.3	76	-9.9	0	0	---	0.00	30.494 
08:15	-4.6	-4.6	-4.6	76	-10.2	0	0	---	0.00	30.506 
08:20	-4.6	-4.6	-4.6	76	-10.2	0	0	---	0.00	30.506 
08:25	-4.3	-4.3	-4.3	77	-9.6	0	0	---	0.00	30.506 
08:30	-4.1	-4.1	-4.1	77	-9.5	0	0	---	0.00	30.504 
08:35	-3.7	-3.7	-3.7	77	-9.1	0	0	---	0.00	30.504 
08:40	-3.5	-3.5	-3.5	77	-8.9	0	0	---	0.00	30.504 
08:45	-3.1	-3.1	-3.1	78	-8.2	0	0	---	0.00	30.509 
08:50	-2.4	-2.4	-2.4	78	-7.5	0	0	---	0.00	30.509 
08:55	-1.8	-1.8	-1.8	79	-6.7	0	0	---	0.00	30.509 
09:00	-1.4	-1.4	-1.4	79	-6.3	0	0	---	0.00	30.515 
09:05	-0.8	-0.8	-0.8	79	-5.7	0	0	---	0.00	30.515 
09:10	-0.4	-0.4	-0.4	79	-5.3	0	1	315	0.00	30.515 
09:15	0.0	0.0	0.0	79	-4.9	0	0	---	0.00	30.515 
09:20	0.3	0.3	0.3	79	-4.6	0	0	---	0.00	30.515 
09:25	0.7	0.7	0.7	79	-4.3	0	0	---	0.00	30.515 
09:30	1.3	1.3	1.3	79	-3.7	0	1	315	0.00	30.513 
09:35	1.5	1.5	1.5	78	-3.7	0	0	---	0.00	30.513 
09:40	2.0	2.0	2.0	78	-3.3	0	0	---	0.00	30.513 
09:45	2.4	2.4	2.4	78	-2.9	0	0	---	0.00	30.514 
09:50	2.8	2.8	2.8	78	-2.5	0	0	---	0.00	30.514 
09:55	3.4	3.4	3.4	77	-2.2	0	0	---	0.00	30.514 
10:00	3.9	3.9	3.9	77	-1.7	0	1	315	0.00	30.519 
10:05	4.5	4.5	4.5	76	-1.4	0	1	315	0.00	30.519 
10:10	5.0	5.0	5.0	75	-1.2	0	0	---	0.00	30.519 
10:15	5.6	5.6	5.6	73	-1.1	0	1	315	0.00	30.521 
10:20	6.0	6.0	6.0	73	-0.8	0	1	315	0.00	30.521 
10:25	6.5	6.5	6.5	72	-0.6	0	0	---	0.00	30.521 
10:30	6.9	6.9	6.9	71	-0.5	0	0	---	0.00	30.531 
10:35	7.4	7.4	7.4	71	0.0	0	0	---	0.00	30.531 
10:40	7.7	7.7	7.7	69	-0.3	0	1	315	0.00	30.531 
10:45	8.1	8.1	8.1	68	-0.2	0	0	---	0.00	30.529 
10:50	8.4	8.4	8.4	67	-0.3	0	0	---	0.00	30.529 
10:55	8.6	8.6	8.6	67	-0.1	0	1	315	0.00	30.529 
11:00	9.0	9.0	9.0	65	-0.3	0	0	---	0.00	30.525 
11:05	9.2	9.2	9.2	63	-0.8	0	1	315	0.00	30.525 
11:10	9.2	9.2	9.2	63	-0.8	0	1	315	0.00	30.525 
11:15	9.3	9.3	9.3	61	-1.4	0	2	315	0.00	30.515 
11:20	9.5	9.5	9.5	62	-0.9	0	1	315	0.00	30.515 
11:25	9.7	9.7	9.7	62	-0.7	0	1	315	0.00	30.515 
11:30	9.9	9.9	9.9	60	-1.2	0	1	315	0.00	30.514 
11:35	10.0	10.0	10.0	60	-1.1	0	1	315	0.00	30.514 
11:40	10.2	10.2	10.2	61	-0.5	0	1	315	0.00	30.514 
11:45	10.4	10.4	10.4	61	-0.3	0	0	---	0.00	30.506 
11:50	10.5	10.5	10.5	60	-0.6	0	1	315	0.00	30.506 
11:55	10.7	10.7	10.7	59	-0.8	0	2	315	0.00	30.506 
12:00	10.9	10.9	10.9	58	-0.9	0	2	315	0.00	30.497 
12:05	10.9	10.9	10.9	57	-1.3	1	3	90	0.00	30.497 
12:10	10.9	10.9	10.9	56	-1.7	1	4	90	0.00	30.497 
12:15	10.9	10.9	10.9	55	-2.1	1	3	112	0.00	30.476 
12:20	10.9	10.9	10.9	56	-1.7	0	2	112	0.00	30.476 
12:25	11.1	11.1	11.1	57	-1.1	0	2	112	0.00	30.476 
12:30	11.1	11.1	11.1	53	-2.6	1	5	112	0.00	30.481 
12:35	10.9	10.9	10.9	54	-2.4	1	4	90	0.00	30.481 
12:40	10.9	10.9	10.9	54	-2.4	1	3	90	0.00	30.481 
12:45	10.9	10.9	10.9	53	-2.8	1	4	90	0.00	30.479 
12:50	11.1	11.1	11.1	52	-3.0	1	4	112	0.00	30.479 
12:55	11.2	11.2	11.2	52	-3.0	1	4	90	0.00	30.479 
13:00	11.2	11.2	11.2	52	-3.0	1	4	90	0.00	30.480 
13:05	11.4	11.4	11.4	53	-2.4	0	2	90	0.00	30.480 
13:10	11.4	11.4	11.4	52	-2.8	1	3	90	0.00	30.480 
13:15	11.6	11.6	11.6	52	-2.6	1	3	90	0.00	30.472 
13:20	11.6	11.6	11.6	53	-2.2	1	3	90	0.00	30.472 
13:25	11.7	11.7	11.7	54	-1.7	0	3	90	0.00	30.472 
13:30	11.9	11.9	11.9	53	-1.9	1	4	90	0.00	30.461 
13:35	12.1	12.1	12.1	54	-1.3	0	2	90	0.00	30.461 
13:40	12.3	12.3	12.3	55	-0.7	0	2	90	0.00	30.461 
13:45	12.4	12.4	12.4	53	-1.4	0	2	90	0.00	30.455 
13:50	12.4	12.4	12.4	52	-1.8	1	4	90	0.00	30.455 
13:55	12.3	12.3	12.3	52	-1.9	0	2	112	0.00	30.455 
14:00	12.3	12.3	12.3	51	-2.3	0	2	112	0.00	30.452 
14:05	12.3	12.3	12.3	50	-2.8	1	3	112	0.00	30.452 
14:10	12.1	12.1	12.1	50	-2.9	1	3	112	0.00	30.452 
14:15	12.1	12.1	12.1	50	-2.9	1	3	112	0.00	30.450 
14:20	12.3	12.3	12.3	53	-1.5	0	2	112	0.00	30.450 
14:25	12.4	12.4	12.4	53	-1.4	1	4	248	0.00	30.450 
14:30	12.6	12.6	12.6	53	-1.2	0	2	248	0.00	30.439 
14:35	12.8	12.8	12.8	53	-1.1	0	2	248	0.00	30.439 
14:40	12.9	12.9	12.9	53	-1.0	0	2	248	0.00	30.439 
14:45	12.9	12.9	12.9	52	-1.4	1	4	248	0.00	30.436 
14:50	12.8	12.8	12.8	51	-1.9	1	4	90	0.00	30.436 
14:55	12.6	12.6	12.6	51	-2.1	1	5	90	0.00	30.436 
15:00	12.6	12.6	12.6	50	-2.5	1	4	90	0.00	30.439 
15:05	12.6	12.6	12.6	52	-1.6	0	3	112	0.00	30.439 
15:10	12.8	12.8	12.8	51	-1.9	0	3	248	0.00	30.439 
15:15	12.8	12.8	12.8	50	-2.3	2	6	90	0.00	30.436 
15:20	12.6	12.6	12.6	50	-2.5	2	6	68	0.00	30.436 
15:25	12.6	12.6	12.6	52	-1.6	1	4	68	0.00	30.436 
15:30	12.6	12.6	12.6	50	-2.5	2	5	90	0.00	30.425 
15:35	12.6	12.6	12.6	51	-2.1	2	7	90	0.00	30.425 
15:40	12.8	12.8	12.8	52	-1.5	2	7	90	0.00	30.425 
15:45	12.8	12.8	12.8	53	-1.1	1	4	90	0.00	30.420 
15:50	12.8	12.8	12.8	52	-1.5	1	3	90	0.00	30.420 
15:55	12.8	12.8	12.8	52	-1.5	2	5	90	0.00	30.420 
16:00	12.8	12.8	12.8	53	-1.1	1	4	90	0.00	30.407 
16:05	12.9	12.9	12.9	53	-1.0	1	5	90	0.00	30.407 
16:10	12.9	12.9	12.9	53	-1.0	1	4	90	0.00	30.407 
16:15	12.9	12.9	12.9	53	-1.0	2	4	90	0.00	30.394 
16:20	12.9	12.9	12.9	53	-1.0	2	9	90	0.00	30.394 
16:25	12.9	12.9	12.9	53	-1.0	1	3	90	0.00	30.394 
16:30	12.8	12.8	12.8	54	-0.7	2	7	90	0.00	30.403 
16:35	12.8	12.8	12.8	54	-0.7	2	4	90	0.00	30.403 
16:40	12.6	12.6	12.6	54	-0.9	2	7	112	0.00	30.403 
16:45	12.6	12.6	12.6	54	-0.9	2	5	112	0.00	30.400 
16:50	12.6	12.6	12.6	55	-0.5	1	5	90	0.00	30.400 
16:55	12.6	12.6	12.6	55	-0.5	1	4	90	0.00	30.400 
17:00	12.4	12.4	12.4	55	-0.7	1	5	90	0.00	30.395 
17:05	12.4	12.4	12.4	56	-0.3	1	5	112	0.00	30.395 
17:10	12.4	12.4	12.4	56	-0.3	1	4	112	0.00	30.395 
17:15	12.4	12.4	12.4	56	-0.3	1	5	112	0.00	30.396 
17:20	12.4	12.4	12.4	56	-0.3	1	4	68	0.00	30.396 
17:25	12.4	12.4	12.4	57	0.1	1	4	90	0.00	30.396 
17:30	12.4	12.4	12.4	57	0.1	1	4	90	0.00	30.395 
17:35	12.4	12.4	12.4	57	0.1	1	4	90	0.00	30.395 
17:40	12.6	12.6	12.6	57	0.3	2	4	90	0.00	30.395 
17:45	12.6	12.6	12.6	57	0.3	2	6	112	0.00	30.377 
17:50	12.6	12.6	12.6	57	0.3	2	7	112	0.00	30.377 
17:55	12.8	12.8	12.8	57	0.5	2	5	90	0.00	30.377 
18:00	12.8	12.8	12.8	58	0.8	1	4	90	0.00	30.374 
18:05	12.8	12.8	12.8	58	0.8	2	6	90	0.00	30.374 
18:10	12.8	12.8	12.8	58	0.8	2	7	90	0.00	30.374 
18:15	12.9	12.9	12.9	58	0.9	2	6	90	0.00	30.356 
18:20	12.9	12.9	12.9	58	0.9	2	5	112	0.00	30.356 
18:25	12.9	12.9	12.9	58	0.9	2	7	90	0.00	30.356 
18:30	12.9	12.9	12.9	59	1.3	2	6	90	0.00	30.345 
18:35	13.1	13.1	13.1	58	1.1	2	10	90	0.00	30.345 
18:40	13.1	13.1	13.1	58	1.1	2	5	68	0.00	30.345 
18:45	13.1	13.1	13.1	58	1.1	2	6	90	0.00	30.344 
18:50	13.1	13.1	13.1	58	1.1	2	7	90	0.00	30.344 
18:55	13.3	13.3	13.3	58	1.3	1	6	112	0.00	30.344 
19:00	13.1	13.1	13.1	58	1.1	1	3	112	0.00	30.334 
19:05	13.1	13.1	13.1	58	1.1	1	5	112	0.00	30.334 
19:10	13.3	13.3	13.3	59	1.7	1	5	112	0.00	30.334 
19:15	13.5	13.5	13.5	58	1.5	2	4	112	0.00	30.331 
19:20	13.5	13.5	13.5	58	1.5	2	5	112	0.00	30.331 
19:25	13.5	13.5	13.5	58	1.5	2	6	112	0.00	30.331 
19:30	13.5	13.5	13.5	57	1.1	1	5	90	0.00	30.331 
19:35	13.5	13.5	13.5	57	1.1	2	5	90	0.00	30.331 
19:40	13.5	13.5	13.5	57	1.1	1	4	90	0.00	30.331 
19:45	13.5	13.5	13.5	58	1.5	1	4	90	0.00	30.332 
19:50	13.6	13.6	13.6	58	1.6	1	5	90	0.00	30.332 
19:55	13.6	13.6	13.6	58	1.6	1	4	90	0.00	30.332 
20:00	13.6	13.6	13.6	58	1.6	1	6	90	0.00	30.330 
20:05	13.6	13.6	13.6	58	1.6	1	6	90	0.00	30.330 
20:10	13.5	13.5	13.5	58	1.5	2	5	90	0.00	30.330 
20:15	13.5	13.5	13.5	58	1.5	1	3	90	0.00	30.328 
20:20	13.5	13.5	13.5	58	1.5	1	5	90	0.00	30.328 
20:25	13.5	13.5	13.5	58	1.5	1	3	90	0.00	30.328 
20:30	13.3	13.3	13.3	58	1.3	3	7	90	0.00	30.299 
20:35	13.1	13.1	13.1	58	1.1	3	8	90	0.00	30.299 
20:40	12.9	12.9	12.9	59	1.3	2	7	90	0.00	30.299 
20:45	12.8	12.8	12.8	59	1.2	2	6	112	0.00	30.296 
20:50	12.8	12.8	12.8	60	1.6	1	3	112	0.00	30.296 
20:55	12.6	12.6	12.6	60	1.4	1	5	112	0.00	30.296 
21:00	12.6	12.6	12.6	61	1.7	1	3	112	0.00	30.295 
21:05	12.4	12.4	12.4	61	1.5	1	4	112	0.00	30.295 
21:10	12.4	12.4	12.4	61	1.5	1	3	112	0.00	30.295 
21:15	12.3	12.3	12.3	61	1.5	1	3	112	0.00	30.283 
21:20	12.3	12.3	12.3	62	1.8	1	4	90	0.00	30.283 
21:25	12.1	12.1	12.1	62	1.6	1	4	90	0.00	30.283 
21:30	12.1	12.1	12.1	62	1.6	2	6	90	0.00	30.271 
21:35	12.1	12.1	12.1	62	1.6	1	4	90	0.00	30.271 
21:40	12.1	12.1	12.1	63	2.0	1	4	90	0.00	30.271 
21:45	12.1	12.1	12.1	63	2.0	1	6	112	0.00	30.261 
21:50	12.1	12.1	12.1	64	2.3	1	4	90	0.00	30.261 
21:55	12.1	12.1	12.1	64	2.3	1	4	68	0.00	30.261 
22:00	12.1	12.1	12.1	64	2.3	1	6	68	0.00	30.260 
22:05	12.1	12.1	12.1	65	2.6	2	5	90	0.00	30.260 
22:10	12.3	12.3	12.3	65	2.8	1	3	90	0.00	30.260 
22:15	12.3	12.3	12.3	66	3.1	2	5	90	0.00	30.243 
22:20	12.3	12.3	12.3	66	3.1	2	6	90	0.00	30.243 
22:25	12.3	12.3	12.3	66	3.1	1	4	90	0.00	30.243 
22:30	12.3	12.3	12.3	67	3.5	1	4	90	0.00	30.239 
22:35	12.3	12.3	12.3	67	3.5	2	5	90	0.00	30.239 
22:40	12.3	12.3	12.3	67	3.5	1	4	112	0.00	30.239 
22:45	12.3	12.3	12.3	68	3.8	2	6	112	0.00	30.227 
22:50	12.4	12.4	12.4	68	3.9	2	6	90	0.00	30.227 
22:55	12.4	12.4	12.4	68	3.9	3	6	112	0.00	30.227 
23:00	12.4	12.4	12.4	68	3.9	2	5	90	0.00	30.223 
23:05	12.4	12.4	12.4	68	3.9	2	6	90	0.00	30.223 
23:10	12.3	12.3	12.3	68	3.8	2	4	90	0.00	30.223 
23:15	12.3	12.3	12.3	68	3.8	2	7	90	0.00	30.211 
23:20	12.4	12.4	12.4	68	3.9	2	5	90	0.00	30.211 
23:25	12.4	12.4	12.4	68	3.9	2	5	90	0.00	30.211 
23:30	12.4	12.4	12.4	68	3.9	2	4	68	0.00	30.206 
23:35	12.4	12.4	12.4	69	4.2	1	6	90	0.00	30.206 
23:40	12.4	12.4	12.4	69	4.2	1	5	90	0.00	30.206 
23:45	12.6	12.6	12.6	69	4.4	2	6	90	0.00	30.196 
23:50	12.6	12.6	12.6	69	4.4	2	6	90	0.00	30.196 
23:55	12.8	12.8	12.8	69	4.6	2	5	90	0.00	30.196 

CoCoRaHS
IN-AL-39
A2 Web Hosting
Creative Commons License
GoDaddy
search engine by freefind advanced

loaded 2018-11-22 05:45:16 • last modified 2010-11-18 10:43:29
Privacy PolicyDisclaimer
• wx.awcolley.com is powered by PmWiki v.2002016 •
• all content (unless otherwise noted) © 2018 A W Colley